createdAt,value
2019-05-30T00:01:34.906Z,101810.53
2019-05-30T00:04:05.257Z,101806.09
2019-05-30T00:06:35.655Z,101810.11
2019-05-30T00:09:09.499Z,101804.78
2019-05-30T00:11:39.689Z,101803.13
2019-05-30T00:14:11.267Z,101809.70
2019-05-30T00:16:42.385Z,101811.05
2019-05-30T00:19:12.536Z,101790.70
2019-05-30T00:21:42.777Z,101798.72
2019-05-30T00:24:12.939Z,101800.92
2019-05-30T00:26:43.272Z,101807.11
2019-05-30T00:29:13.573Z,101801.81
2019-05-30T00:31:43.929Z,101801.81
2019-05-30T00:34:14.195Z,101804.02
2019-05-30T00:36:44.510Z,101802.27
2019-05-30T00:39:14.843Z,101794.35
2019-05-30T00:41:45.081Z,101796.13
2019-05-30T00:44:15.410Z,101793.04
2019-05-30T00:46:45.589Z,101787.76
2019-05-30T00:49:15.797Z,101782.01
2019-05-30T00:51:47.618Z,101783.78
2019-05-30T00:54:17.825Z,101782.50
2019-05-30T00:56:47.948Z,101780.72
2019-05-30T00:59:18.125Z,101777.22
2019-05-30T01:01:48.310Z,101769.27
2019-05-30T01:04:18.476Z,101776.34
2019-05-30T01:06:48.651Z,101773.66
2019-05-30T01:09:18.823Z,101770.16
2019-05-30T01:11:49.004Z,101767.52
2019-05-30T01:14:19.348Z,101767.09
2019-05-30T01:16:49.593Z,101759.58
2019-05-30T01:19:19.873Z,101755.17
2019-05-30T01:21:51.632Z,101752.11
2019-05-30T01:24:21.822Z,101749.91
2019-05-30T01:26:52.098Z,101752.55
2019-05-30T01:29:22.273Z,101754.75
2019-05-30T01:31:52.497Z,101744.60
2019-05-30T01:34:22.688Z,101753.45
2019-05-30T01:36:52.987Z,101744.19
2019-05-30T01:39:23.198Z,101742.45
2019-05-30T01:41:53.371Z,101740.23
2019-05-30T01:44:23.602Z,101740.23
2019-05-30T01:46:53.746Z,101740.23
2019-05-30T01:49:23.937Z,101738.47
2019-05-30T01:51:54.179Z,101728.73
2019-05-30T01:54:24.352Z,101727.44
2019-05-30T01:56:55.298Z,101729.62
2019-05-30T01:59:26.602Z,101736.67
2019-05-30T02:01:56.760Z,101734.02
2019-05-30T02:04:26.922Z,101733.59
2019-05-30T02:06:57.108Z,101730.05
2019-05-30T02:09:27.290Z,101731.35
2019-05-30T02:11:57.514Z,101736.24
2019-05-30T02:14:27.711Z,101729.59
2019-05-30T02:16:57.939Z,101732.25
2019-05-30T02:19:28.147Z,101731.77
2019-05-30T02:21:59.622Z,101732.22
2019-05-30T02:24:29.892Z,101731.77
2019-05-30T02:27:00.102Z,101733.10
2019-05-30T02:29:30.295Z,101731.34
2019-05-30T02:32:01.040Z,101730.88
2019-05-30T02:34:32.589Z,101722.51
2019-05-30T02:37:03.307Z,101724.26
2019-05-30T02:39:34.739Z,101725.15
2019-05-30T02:42:07.340Z,101725.57
2019-05-30T02:44:37.741Z,101720.26
2019-05-30T02:47:09.563Z,101726.03
2019-05-30T02:49:40.008Z,101729.13
2019-05-30T02:52:10.817Z,101725.57
2019-05-30T02:54:41.606Z,101727.34
2019-05-30T02:57:12.551Z,101733.11
2019-05-30T02:59:43.981Z,101729.11
2019-05-30T03:02:17.219Z,101731.31
2019-05-30T03:04:46.138Z,101728.65
2019-05-30T03:07:16.414Z,101733.09
2019-05-30T03:09:46.727Z,101729.55
2019-05-30T03:12:16.888Z,101733.92
2019-05-30T03:14:47.128Z,101718.94
2019-05-30T03:17:17.295Z,101727.76
2019-05-30T03:19:47.594Z,101727.36
2019-05-30T03:22:17.795Z,101731.33
2019-05-30T03:24:48.018Z,101733.96
2019-05-30T03:27:18.249Z,101722.89
2019-05-30T03:29:48.492Z,101716.72
2019-05-30T03:34:52.270Z,101714.49
2019-05-30T03:37:28.797Z,101718.44
2019-05-30T03:39:54.356Z,101708.25
2019-05-30T03:42:24.555Z,101708.21
2019-05-30T03:44:54.759Z,101703.80
2019-05-30T03:47:27.373Z,101705.06
2019-05-30T03:49:58.051Z,101704.58
2019-05-30T03:52:28.933Z,101692.20
2019-05-30T03:55:00.389Z,101690.39
2019-05-30T03:57:34.988Z,101691.20
2019-05-30T04:00:11.121Z,101703.54
2019-05-30T04:02:57.381Z,101697.30
2019-05-30T04:05:23.568Z,101701.22
2019-05-30T04:07:56.554Z,101698.95
2019-05-30T04:10:30.690Z,101710.44
2019-05-30T04:13:40.160Z,101701.52
2019-05-30T04:16:11.108Z,101698.82
2019-05-30T04:18:41.679Z,101705.02
2019-05-30T04:21:14.169Z,101708.92
2019-05-30T04:23:43.948Z,101704.84
2019-05-30T04:26:15.730Z,101710.53
2019-05-30T04:28:46.153Z,101708.73
2019-05-30T04:31:17.192Z,101708.30
2019-05-30T04:33:48.345Z,101698.11
2019-05-30T04:36:19.306Z,101703.35
2019-05-30T04:38:53.705Z,101702.88
2019-05-30T04:41:25.160Z,101705.91
2019-05-30T04:43:58.367Z,101703.59
2019-05-30T04:46:28.590Z,101704.41
2019-05-30T04:48:58.753Z,101706.47
2019-05-30T04:51:28.931Z,101715.28
2019-05-30T04:53:59.181Z,101709.30
2019-05-30T04:56:31.198Z,101708.65
2019-05-30T04:59:07.174Z,101697.04
2019-05-30T05:01:43.524Z,101699.00
2019-05-30T05:04:15.376Z,101707.70
2019-05-30T05:06:45.786Z,101706.66
2019-05-30T05:09:23.454Z,101702.06
2019-05-30T05:11:56.529Z,101698.89
2019-05-30T05:14:33.152Z,101702.36
2019-05-30T05:17:08.591Z,101696.08
2019-05-30T05:19:42.150Z,101693.78
2019-05-30T05:22:14.979Z,101693.27
2019-05-30T05:24:47.016Z,101704.69
2019-05-30T05:27:21.803Z,101700.48
2019-05-30T05:29:52.856Z,101693.69
2019-05-30T05:32:25.688Z,101691.26
2019-05-30T05:34:55.909Z,101688.42
2019-05-30T05:37:30.430Z,101691.75
2019-05-30T05:40:02.244Z,101694.23
2019-05-30T05:42:33.377Z,101694.06
2019-05-30T05:45:04.745Z,101695.09
2019-05-30T05:47:35.464Z,101696.95
2019-05-30T05:50:06.456Z,101697.39
2019-05-30T05:52:39.010Z,101698.64
2019-05-30T05:55:10.609Z,101690.95
2019-05-30T05:57:40.868Z,101701.78
2019-05-30T06:00:11.423Z,101702.52
2019-05-30T06:02:44.226Z,101701.68
2019-05-30T06:05:15.934Z,101704.77
2019-05-30T06:07:47.469Z,101703.31
2019-05-30T06:10:21.377Z,101698.57
2019-05-30T06:12:56.226Z,101697.45
2019-05-30T06:15:28.992Z,101699.95
2019-05-30T06:17:59.390Z,101699.64
2019-05-30T06:20:31.075Z,101709.91
2019-05-30T06:23:01.272Z,101701.61
2019-05-30T06:25:33.059Z,101703.52
2019-05-30T06:28:03.453Z,101702.14
2019-05-30T06:30:38.531Z,101706.44
2019-05-30T06:33:12.428Z,101706.42
2019-05-30T06:35:42.631Z,101706.67
2019-05-30T06:38:13.051Z,101711.28
2019-05-30T06:40:43.334Z,101710.62
2019-05-30T06:43:13.562Z,101713.41
2019-05-30T06:45:50.479Z,101708.75
2019-05-30T06:48:32.479Z,101710.97
2019-05-30T06:51:02.709Z,101706.70
2019-05-30T06:53:34.537Z,101699.16
2019-05-30T06:56:04.888Z,101700.27
2019-05-30T06:58:47.928Z,101702.55
2019-05-30T07:01:10.217Z,101708.86
2019-05-30T07:03:40.607Z,101711.53
2019-05-30T07:06:12.953Z,101715.34
2019-05-30T07:08:44.962Z,101712.45
2019-05-30T07:11:18.816Z,101714.98
2019-05-30T07:13:48.985Z,101712.23
2019-05-30T07:16:19.205Z,101702.68
2019-05-30T07:18:49.456Z,101707.14
2019-05-30T07:21:23.556Z,101703.86
2019-05-30T07:24:00.346Z,101703.66
2019-05-30T07:26:30.558Z,101703.39
2019-05-30T07:29:02.399Z,101716.02
2019-05-30T07:31:32.611Z,101717.51
2019-05-30T07:34:02.860Z,101727.44
2019-05-30T07:36:54.359Z,101729.22
2019-05-30T07:39:27.166Z,101741.52
2019-05-30T07:42:06.164Z,101738.42
2019-05-30T07:44:30.761Z,101737.20
2019-05-30T07:47:01.067Z,101740.61
2019-05-30T07:49:34.628Z,101736.11
2019-05-30T07:52:06.777Z,101740.91
2019-05-30T07:54:37.199Z,101735.63
2019-05-30T07:57:07.457Z,101735.77
2019-05-30T07:59:38.719Z,101737.16
2019-05-30T08:02:10.530Z,101737.23
2019-05-30T08:04:46.779Z,101726.34
2019-05-30T08:07:15.207Z,101726.89
2019-05-30T08:09:45.481Z,101725.30
2019-05-30T08:12:15.755Z,101723.25
2019-05-30T08:14:46.016Z,101726.94
2019-05-30T08:17:16.218Z,101715.72
2019-05-30T08:19:46.534Z,101718.78
2019-05-30T08:22:16.718Z,101723.02
2019-05-30T08:24:46.937Z,101724.72
2019-05-30T08:27:17.138Z,101720.53
2019-05-30T08:29:47.368Z,101722.19
2019-05-30T08:32:20.433Z,101724.56
2019-05-30T08:34:50.710Z,101718.37
2019-05-30T08:37:20.974Z,101713.27
2019-05-30T08:39:54.721Z,101713.83
2019-05-30T08:42:29.528Z,101715.13
2019-05-30T08:45:04.706Z,101717.47
2019-05-30T08:47:36.034Z,101708.89
2019-05-30T08:50:08.629Z,101707.02
2019-05-30T08:52:38.810Z,101709.36
2019-05-30T08:55:11.345Z,101697.68
2019-05-30T08:57:41.596Z,101705.60
2019-05-30T09:00:12.457Z,101707.35
2019-05-30T09:02:42.990Z,101710.04
2019-05-30T09:05:13.348Z,101707.42
2019-05-30T09:07:44.620Z,101705.85
2019-05-30T09:10:15.413Z,101707.53
2019-05-30T09:12:49.385Z,101699.05
2019-05-30T09:15:21.591Z,101711.75
2019-05-30T09:17:49.482Z,101713.42
2019-05-30T09:20:19.805Z,101704.32
2019-05-30T09:22:49.963Z,101703.26
2019-05-30T09:25:22.806Z,101698.62
2019-05-30T09:27:53.031Z,101700.00
2019-05-30T09:30:23.622Z,101700.45
2019-05-30T09:32:53.842Z,101678.36
2019-05-30T09:35:24.945Z,101693.00
2019-05-30T09:37:55.124Z,101687.31
2019-05-30T09:40:25.654Z,101680.81
2019-05-30T09:42:55.888Z,101685.56
2019-05-30T09:45:28.034Z,101684.42
2019-05-30T09:47:59.661Z,101688.48
2019-05-30T09:50:30.030Z,101684.25
2019-05-30T09:53:00.264Z,101684.42
2019-05-30T09:55:31.376Z,101688.58
2019-05-30T09:58:01.726Z,101689.43
2019-05-30T10:00:34.065Z,101687.77
2019-05-30T10:03:04.475Z,101687.95
2019-05-30T10:05:34.711Z,101689.65
2019-05-30T10:08:05.098Z,101687.70
2019-05-30T10:10:35.325Z,101683.02
2019-05-30T10:13:05.757Z,101687.80
2019-05-30T10:15:36.040Z,101682.84
2019-05-30T10:18:06.174Z,101690.26
2019-05-30T10:20:36.344Z,101696.00
2019-05-30T10:23:06.526Z,101692.22
2019-05-30T10:25:36.738Z,101702.52
2019-05-30T10:28:07.062Z,101695.79
2019-05-30T10:30:37.268Z,101694.70
2019-05-30T10:33:07.422Z,101699.50
2019-05-30T10:35:37.654Z,101699.43
2019-05-30T10:38:07.958Z,101700.27
2019-05-30T10:40:40.190Z,101701.83
2019-05-30T10:43:10.386Z,101704.42
2019-05-30T10:45:40.660Z,101700.73
2019-05-30T10:48:10.998Z,101705.94
2019-05-30T10:50:41.231Z,101703.10
2019-05-30T10:53:11.440Z,101701.06
2019-05-30T10:55:41.662Z,101708.54
2019-05-30T10:58:19.377Z,101700.52
2019-05-30T11:00:55.468Z,101704.62
2019-05-30T11:03:27.730Z,101705.00
2019-05-30T11:06:23.500Z,101703.88
2019-05-30T11:08:56.914Z,101702.25
2019-05-30T11:11:27.382Z,101697.52
2019-05-30T11:13:57.549Z,101700.30
2019-05-30T11:16:27.834Z,101705.09
2019-05-30T11:18:58.060Z,101705.94
2019-05-30T11:21:28.501Z,101702.03
2019-05-30T11:23:58.790Z,101704.14
2019-05-30T11:26:29.085Z,101701.67
2019-05-30T11:28:59.506Z,101707.27
2019-05-30T11:31:29.827Z,101714.48
2019-05-30T11:34:00.009Z,101705.06
2019-05-30T11:36:30.308Z,101699.02
2019-05-30T11:39:00.588Z,101700.46
2019-05-30T11:41:31.253Z,101705.68
2019-05-30T11:44:04.127Z,101704.77
2019-05-30T11:46:33.342Z,101702.83
2019-05-30T11:49:03.578Z,101700.09
2019-05-30T11:51:33.792Z,101706.72
2019-05-30T11:54:04.140Z,101702.79
2019-05-30T11:56:34.358Z,101691.98
2019-05-30T11:59:04.524Z,101693.14
2019-05-30T12:01:34.738Z,101700.45
2019-05-30T12:04:04.934Z,101694.28
2019-05-30T12:06:35.120Z,101695.98
2019-05-30T12:09:07.515Z,101691.48
2019-05-30T12:11:37.708Z,101693.10
2019-05-30T12:14:07.892Z,101693.91
2019-05-30T12:16:38.169Z,101691.13
2019-05-30T12:19:08.311Z,101709.01
2019-05-30T12:21:38.484Z,101692.69
2019-05-30T12:24:08.765Z,101698.17
2019-05-30T12:26:39.034Z,101702.67
2019-05-30T12:29:09.300Z,101697.53
2019-05-30T12:31:39.594Z,101702.86
2019-05-30T12:34:10.073Z,101704.76
2019-05-30T12:36:40.277Z,101715.67
2019-05-30T12:39:10.508Z,101711.18
2019-05-30T12:41:40.745Z,101708.48
2019-05-30T12:44:10.958Z,101705.80
2019-05-30T12:46:41.152Z,101709.75
2019-05-30T12:49:11.456Z,101715.23
2019-05-30T12:51:41.734Z,101707.53
2019-05-30T12:54:11.931Z,101710.63
2019-05-30T12:56:42.206Z,101714.84
2019-05-30T12:59:12.421Z,101712.90
2019-05-30T13:01:42.589Z,101715.43
2019-05-30T13:04:12.770Z,101717.88
2019-05-30T13:06:42.949Z,101722.66
2019-05-30T13:09:13.126Z,101728.41
2019-05-30T13:11:43.307Z,101731.53
2019-05-30T13:14:13.482Z,101734.70
2019-05-30T13:16:44.558Z,101737.30
2019-05-30T13:19:14.755Z,101733.62
2019-05-30T13:21:44.916Z,101727.89
2019-05-30T13:24:15.063Z,101727.11
2019-05-30T13:26:45.271Z,101733.68
2019-05-30T13:29:15.605Z,101722.67
2019-05-30T13:31:45.709Z,101732.09
2019-05-30T13:34:15.941Z,101734.99
2019-05-30T13:36:46.565Z,101739.02
2019-05-30T13:39:17.816Z,101732.95
2019-05-30T13:41:48.111Z,101739.20
2019-05-30T13:44:18.327Z,101723.77
2019-05-30T13:46:48.553Z,101730.17
2019-05-30T13:49:18.856Z,101736.22
2019-05-30T13:51:49.104Z,101724.86
2019-05-30T13:54:19.312Z,101724.78
2019-05-30T13:56:52.308Z,101726.95
2019-05-30T13:59:22.620Z,101718.37
2019-05-30T14:01:52.794Z,101730.37
2019-05-30T14:04:22.969Z,101726.57
2019-05-30T14:06:53.230Z,101719.34
2019-05-30T14:09:24.574Z,101726.02
2019-05-30T14:11:55.035Z,101715.92
2019-05-30T14:14:25.274Z,101716.74
2019-05-30T14:16:55.441Z,101715.74
2019-05-30T14:19:25.669Z,101723.16
2019-05-30T14:21:56.956Z,101729.19
2019-05-30T14:24:29.385Z,101729.42
2019-05-30T14:26:59.573Z,101731.23
2019-05-30T14:29:29.703Z,101732.95
2019-05-30T14:32:00.035Z,101738.21
2019-05-30T14:34:30.281Z,101736.34
2019-05-30T14:37:00.604Z,101738.87
2019-05-30T14:39:30.935Z,101735.77
2019-05-30T14:42:01.188Z,101740.02
2019-05-30T14:44:31.316Z,101737.23
2019-05-30T14:47:01.466Z,101742.42
2019-05-30T14:49:31.615Z,101729.67
2019-05-30T14:52:01.883Z,101743.79
2019-05-30T14:54:32.318Z,101736.67
2019-05-30T14:57:06.843Z,101748.02
2019-05-30T14:59:37.079Z,101745.45
2019-05-30T15:02:07.353Z,101745.41
2019-05-30T15:04:37.596Z,101746.09
2019-05-30T15:07:09.316Z,101749.52
2019-05-30T15:09:42.465Z,101747.75
2019-05-30T15:12:12.776Z,101744.30
2019-05-30T15:14:43.001Z,101735.41
2019-05-30T15:17:14.296Z,101735.23
2019-05-30T15:22:16.811Z,101740.30
2019-05-30T15:24:46.912Z,101733.28
2019-05-30T15:27:20.607Z,101725.22
2019-05-30T15:29:49.173Z,101732.66
2019-05-30T15:32:19.431Z,101730.69
2019-05-30T15:34:49.709Z,101720.36
2019-05-30T15:37:19.937Z,101724.91
2019-05-30T15:39:50.132Z,101733.84
2019-05-30T15:42:20.360Z,101734.66
2019-05-30T15:44:50.560Z,101729.09
2019-05-30T15:47:20.781Z,101728.37
2019-05-30T15:49:52.395Z,101741.77
2019-05-30T15:52:24.142Z,101741.52
2019-05-30T15:54:54.729Z,101746.43
2019-05-30T15:57:24.907Z,101746.25
2019-05-30T15:59:55.145Z,101752.10
2019-05-30T16:02:26.029Z,101745.23
2019-05-30T16:04:56.313Z,101746.17
2019-05-30T16:07:26.561Z,101745.33
2019-05-30T16:09:57.725Z,101744.95
2019-05-30T16:12:27.916Z,101749.50
2019-05-30T16:14:58.121Z,101737.95
2019-05-30T16:17:28.397Z,101742.03
2019-05-30T16:19:58.676Z,101746.30
2019-05-30T16:22:28.879Z,101738.63
2019-05-30T16:24:59.191Z,101738.15
2019-05-30T16:27:31.292Z,101739.53
2019-05-30T16:30:02.002Z,101739.91
2019-05-30T16:32:34.287Z,101739.30
2019-05-30T16:35:04.665Z,101742.07
2019-05-30T16:37:34.919Z,101732.57
2019-05-30T16:40:07.221Z,101737.73
2019-05-30T16:42:37.380Z,101742.33
2019-05-30T16:45:08.557Z,101734.74
2019-05-30T16:47:40.241Z,101737.92
2019-05-30T16:50:13.073Z,101741.20
2019-05-30T16:52:44.563Z,101736.17
2019-05-30T16:55:15.209Z,101734.64
2019-05-30T16:57:45.531Z,101733.83
2019-05-30T17:00:17.672Z,101726.41
2019-05-30T17:02:47.846Z,101732.38
2019-05-30T17:05:18.053Z,101741.54
2019-05-30T17:07:48.732Z,101735.89
2019-05-30T17:10:27.494Z,101735.49
2019-05-30T17:12:51.140Z,101734.22
2019-05-30T17:15:22.024Z,101735.10
2019-05-30T17:17:52.270Z,101734.28
2019-05-30T17:20:22.604Z,101736.30
2019-05-30T17:22:52.825Z,101734.83
2019-05-30T17:25:23.209Z,101729.05
2019-05-30T17:27:53.438Z,101723.80
2019-05-30T17:30:23.838Z,101730.08
2019-05-30T17:32:54.031Z,101734.41
2019-05-30T17:35:24.269Z,101734.11
2019-05-30T17:37:54.508Z,101733.47
2019-05-30T17:40:39.338Z,101733.73
2019-05-30T17:42:56.754Z,101740.84
2019-05-30T17:45:27.312Z,101744.45
2019-05-30T17:48:07.540Z,101744.50
2019-05-30T17:50:30.059Z,101744.69
2019-05-30T17:53:01.718Z,101748.27
2019-05-30T17:55:31.942Z,101754.80
2019-05-30T17:58:02.250Z,101755.15
2019-05-30T18:00:32.419Z,101751.23
2019-05-30T18:03:02.643Z,101754.06
2019-05-30T18:05:32.897Z,101745.04
2019-05-30T18:08:03.154Z,101745.86
2019-05-30T18:10:33.368Z,101745.20
2019-05-30T18:13:03.590Z,101754.12
2019-05-30T18:15:33.751Z,101749.75
2019-05-30T18:18:04.082Z,101750.83
2019-05-30T18:20:47.663Z,101751.69
2019-05-30T18:23:06.887Z,101745.86
2019-05-30T18:25:37.154Z,101754.72
2019-05-30T18:28:07.405Z,101751.63
2019-05-30T18:30:42.614Z,101758.48
2019-05-30T18:33:13.317Z,101758.63
2019-05-30T18:35:43.585Z,101761.58
2019-05-30T18:38:13.893Z,101765.27
2019-05-30T18:40:44.237Z,101764.10
2019-05-30T18:43:14.537Z,101769.57
2019-05-30T18:45:46.497Z,101761.36
2019-05-30T18:48:17.651Z,101771.64
2019-05-30T18:50:47.865Z,101769.91
2019-05-30T18:53:19.003Z,101769.42
2019-05-30T18:55:49.323Z,101765.56
2019-05-30T18:58:19.671Z,101772.00
2019-05-30T19:00:50.185Z,101779.78
2019-05-30T19:03:20.472Z,101778.44
2019-05-30T19:05:50.782Z,101780.06
2019-05-30T19:08:21.156Z,101792.92
2019-05-30T19:10:51.406Z,101786.43
2019-05-30T19:13:22.058Z,101796.95
2019-05-30T19:15:52.317Z,101790.42
2019-05-30T19:18:22.484Z,101796.31
2019-05-30T19:20:52.685Z,101795.83
2019-05-30T19:23:23.040Z,101797.94
2019-05-30T19:25:53.273Z,101800.23
2019-05-30T19:28:24.405Z,101801.27
2019-05-30T19:30:54.673Z,101810.08
2019-05-30T19:33:24.922Z,101807.37
2019-05-30T19:35:55.207Z,101802.09
2019-05-30T19:38:25.390Z,101811.84
2019-05-30T19:40:55.653Z,101807.71
2019-05-30T19:43:25.882Z,101804.61
2019-05-30T19:45:56.127Z,101807.41
2019-05-30T19:48:26.315Z,101799.70
2019-05-30T19:50:57.468Z,101804.72
2019-05-30T19:53:28.771Z,101805.80
2019-05-30T19:55:59.106Z,101800.72
2019-05-30T19:58:29.579Z,101806.50
2019-05-30T20:01:00.943Z,101803.52
2019-05-30T20:03:40.223Z,101805.85
2019-05-30T20:06:03.214Z,101802.92
2019-05-30T20:08:46.976Z,101799.33
2019-05-30T20:11:05.452Z,101797.38
2019-05-30T20:13:37.082Z,101800.72
2019-05-30T20:16:07.414Z,101805.22
2019-05-30T20:18:37.763Z,101806.75
2019-05-30T20:21:08.007Z,101807.78
2019-05-30T20:23:50.398Z,101808.39
2019-05-30T20:26:13.391Z,101814.39
2019-05-30T20:28:43.652Z,101816.34
2019-05-30T20:31:13.925Z,101821.44
2019-05-30T20:33:44.201Z,101820.91
2019-05-30T20:36:14.465Z,101826.22
2019-05-30T20:38:44.777Z,101821.88
2019-05-30T20:41:16.015Z,101818.89
2019-05-30T20:43:47.393Z,101825.23
2019-05-30T20:46:23.155Z,101824.91
2019-05-30T20:48:49.871Z,101827.55
2019-05-30T20:51:21.416Z,101825.47
2019-05-30T20:53:54.789Z,101829.41
2019-05-30T20:56:24.002Z,101829.91
2019-05-30T20:58:54.181Z,101830.88
2019-05-30T21:01:24.460Z,101829.11
2019-05-30T21:03:54.845Z,101831.39
2019-05-30T21:06:25.710Z,101830.43
2019-05-30T21:08:57.181Z,101825.47
2019-05-30T21:11:27.731Z,101833.01
2019-05-30T21:13:57.927Z,101834.72
2019-05-30T21:16:30.847Z,101836.05
2019-05-30T21:19:02.344Z,101833.45
2019-05-30T21:21:32.534Z,101838.48
2019-05-30T21:24:02.754Z,101839.49
2019-05-30T21:26:32.942Z,101834.23
2019-05-30T21:29:03.406Z,101839.22
2019-05-30T21:31:33.599Z,101834.48
2019-05-30T21:34:03.886Z,101832.89
2019-05-30T21:36:34.096Z,101831.16
2019-05-30T21:39:05.330Z,101836.58
2019-05-30T21:41:35.620Z,101839.87
2019-05-30T21:44:05.822Z,101833.86
2019-05-30T21:46:38.618Z,101836.60
2019-05-30T21:49:09.098Z,101837.88
2019-05-30T21:51:39.335Z,101836.16
2019-05-30T21:54:09.518Z,101831.50
2019-05-30T21:56:39.982Z,101833.78
2019-05-30T21:59:10.252Z,101834.70
2019-05-30T22:01:40.811Z,101830.81
2019-05-30T22:04:11.018Z,101829.66
2019-05-30T22:06:41.289Z,101829.56
2019-05-30T22:09:12.079Z,101829.40
2019-05-30T22:11:43.627Z,101824.86
2019-05-30T22:14:13.916Z,101824.38
2019-05-30T22:16:44.144Z,101823.95
2019-05-30T22:19:14.339Z,101815.92
2019-05-30T22:21:44.656Z,101818.10
2019-05-30T22:24:15.105Z,101814.41
2019-05-30T22:26:46.333Z,101812.06
2019-05-30T22:29:16.560Z,101812.87
2019-05-30T22:31:46.776Z,101810.09
2019-05-30T22:34:17.022Z,101811.80
2019-05-30T22:36:48.941Z,101810.84
2019-05-30T22:39:19.215Z,101813.42
2019-05-30T22:41:50.004Z,101805.06
2019-05-30T22:44:20.282Z,101805.69
2019-05-30T22:46:50.504Z,101806.28
2019-05-30T22:49:20.694Z,101802.86
2019-05-30T22:51:51.137Z,101806.87
2019-05-30T22:54:21.500Z,101804.77
2019-05-30T22:56:51.702Z,101811.73
2019-05-30T22:59:21.918Z,101811.25
2019-05-30T23:01:53.539Z,101810.81
2019-05-30T23:04:23.824Z,101809.91
2019-05-30T23:06:54.556Z,101801.40
2019-05-30T23:09:24.826Z,101799.91
2019-05-30T23:11:55.963Z,101800.28
2019-05-30T23:14:26.133Z,101797.02
2019-05-30T23:16:56.493Z,101801.03
2019-05-30T23:19:26.715Z,101800.02
2019-05-30T23:21:57.912Z,101803.08
2019-05-30T23:24:28.113Z,101798.63
2019-05-30T23:26:58.309Z,101798.05
2019-05-30T23:29:28.466Z,101800.66
2019-05-30T23:31:58.691Z,101800.61
2019-05-30T23:34:29.006Z,101793.86
2019-05-30T23:36:59.215Z,101798.64
2019-05-30T23:39:29.424Z,101802.64
2019-05-30T23:41:59.677Z,101797.23
2019-05-30T23:44:29.858Z,101804.69
2019-05-30T23:47:00.078Z,101800.61
2019-05-30T23:49:30.266Z,101788.56
2019-05-30T23:52:00.519Z,101786.84
2019-05-30T23:54:30.873Z,101784.53
2019-05-30T23:57:01.088Z,101786.26
2019-05-30T23:59:31.243Z,101783.19
